• Join FlightAware (Why Join?)
  • Login
  • US Flag 
07:49AM EDT


 

Airport Tracker/Info


-or-


 

Live Flight TrackerFlight Track Log ✈ UPS1122 ✈ 23-Apr-2013 ✈ KPHL - KBDL

Flight Track Log - Related Links

Times and Time Zones

All times are in EDT time to prevent confusion due to time zone crossing. See the UPS1122 flight status page for this flight to view local times or setup timezone preferences in your user account.

Time Position Orientation Groundspeed Altitude Reporting Facility
EDT Latitude Longitude Course Direction KTS MPH feet Rate Location/Type
03:48AM 39.8681 -75.2364 77° East 138 159 1,600  Level FAA TRACON SMA TRACON (SMA)
03:48AM 39.8714 -75.2169 77° East 169 194 2,300 2,820 Climbing FAA TRACON SMA TRACON (SMA)
03:48AM 39.8758 -75.1900 78° East 196 226 3,500 2,760 Climbing FAA TRACON SMA TRACON (SMA)
03:49AM 39.8728 -75.1672 100° East 220 253 4,100 1,800 Climbing FAA TRACON SMA TRACON (SMA)
03:49AM 39.8672 -75.1394 105° East 252 290 4,700 1,800 Climbing FAA TRACON SMA TRACON (SMA)
03:49AM 39.8617 -75.1067 102° East 266 306 5,300 2,520 Climbing FAA TRACON SMA TRACON (SMA)
03:50AM 39.8553 -75.0753 105° East 281 323 6,400 3,120 Climbing FAA TRACON SMA TRACON (SMA)
03:50AM 39.8503 -75.0453 102° East 285 328 7,400 3,420 Climbing FAA TRACON SMA TRACON (SMA)
03:50AM 39.8456 -75.0128 101° East 284 327 8,700 3,900 Climbing FAA TRACON SMA TRACON (SMA)
03:51AM 39.8397 -74.9744 101° East 284 327 10,000 2,400 Climbing FAA TRACON SMA TRACON (SMA)
03:51AM 39.8347 -74.9436 102° East 288 331 10,300 840 Climbing FAA TRACON SMA TRACON (SMA)
03:51AM 39.8264 -74.8967 103° East 340 391 10,600 1,800 Climbing FAA TRACON SMA TRACON (SMA)
03:52AM 39.8200 -74.8589 102° East 350 403 11,500 1,800 Climbing FAA TRACON SMA TRACON (SMA)
03:52AM 39.8142 -74.8233 102° East 352 405 11,800 720 Climbing FAA TRACON SMA TRACON (SMA)
03:52AM 39.8050 -74.7722 103° East 356 410 12,000 720 Climbing FAA TRACON SMA TRACON (SMA)
03:53AM 39.8028 -74.7322 94° East 363 418 12,300 1,680 Climbing FAA TRACON SMA TRACON (SMA)
03:53AM 39.8142 -74.6964 68° East 376 433 13,100 2,520 Climbing FAA TRACON SMA TRACON (SMA)
03:53AM 39.8425 -74.6606 44° Northeast 369 425 14,000 2,400 Climbing FAA TRACON SMA TRACON (SMA)
03:54AM 39.8675 -74.6358 37° Northeast 380 437 14,700 2,220 Climbing FAA TRACON SMA TRACON (SMA)
03:54AM 39.8950 -74.6100 36° Northeast 379 436 15,500 2,820 Climbing FAA TRACON SMA TRACON (SMA)
03:54AM 39.9264 -74.5811 35° Northeast 384 442 16,600 2,880 Climbing FAA TRACON SMA TRACON (SMA)
03:55AM 39.9556 -74.5553 34° Northeast 388 447 17,500 2,100 Climbing FAA TRACON SMA TRACON (SMA)
03:55AM 39.9867 -74.5258 36° Northeast 401 461 18,000 480 Climbing FAA TRACON SMA TRACON (SMA)
03:56AM 39.9867 -74.5258 217° Southwest 401 461 18,000 2,220 Level FAA TRACON SMA TRACON (SMA)
03:57AM 40.1758 -74.3514 35° Northeast 412 474 22,700 2,040 Climbing New York Center
03:58AM 40.2767 -74.2614 34° Northeast 431 496 23,000 120 Climbing New York Center
03:59AM 40.3794 -74.1658 35° Northeast 442 509 23,000  Level New York Center
04:00AM 40.4819 -74.0753 34° Northeast 442 509 23,000  Level New York Center
04:01AM 40.5806 -73.9789 37° Northeast 442 509 23,000  Level New York Center
04:03AM 40.8381 -73.7458 34° Northeast 449 517 23,000  Level Boston Center
04:04AM 40.9286 -73.6572 36° Northeast 449 517 23,000  Level Boston Center
04:05AM 41.0422 -73.5547 34° Northeast 449 517 23,000 -540 Level Boston Center
04:06AM 41.1453 -73.4544 36° Northeast 449 517 22,000 -1,680 Descending Boston Center
04:07AM 41.2358 -73.3675 36° Northeast 454 522 19,700 -2,760 Descending Boston Center
04:08AM 41.3469 -73.2614 36° Northeast 454 522 16,500 -2,880 Descending Boston Center
04:09AM 41.4414 -73.1711 36° Northeast 440 506 14,000 -3,180 Descending Boston Center
04:10AM 41.5317 -73.0833 36° Northeast 408 470 10,200 -2,340 Descending Boston Center
04:11AM 41.6131 -73.0425 21° North 345 397 9,400 -1,440 Descending Boston Center
04:12AM 41.6883 -73.0156 15° North 276 318 7,400 -1,740 Descending Boston Center
04:13AM 41.7364 -72.9603 41° Northeast 235 270 6,000 -1,500 Descending Boston Center
04:14AM 41.7825 -72.8967 46° Northeast 230 265 4,500 -1,320 Descending Boston Center
04:15AM 41.8225 -72.8439 45° Northeast 214 246 3,400 -1,020 Descending Boston Center
04:16AM 41.8581 -72.7997 43° Northeast 188 216 2,500 -840 Descending Boston Center
04:17AM 41.8811 -72.7692 45° Northeast 150 173 1,800 -660 Descending Boston Center
04:18AM 41.9019 -72.7386 48° Northeast 117 135 1,200 -660 Descending Boston Center
04:19AM 41.9228 -72.7108 45° Northeast 106 122 500 -720 Descending Boston Center
04:24AM 41.9333 -72.6833 48° Northeast  Level FlightAware Approximate
04:31AM 41.9392 -72.6834 48° Northeast  Level Estimated
04:32AM 41.9333 -72.6833 48° Northeast  Level FlightAware Approximate
04:33AM 41.9392 -72.6834 48° Northeast  Level Estimated